createdAt,value
2023-05-14T00:01:10.749Z,46.97
2023-05-14T00:03:38.896Z,45.30
2023-05-14T00:06:05.887Z,43.53
2023-05-14T00:08:32.713Z,41.17
2023-05-14T00:10:59.583Z,46.93
2023-05-14T00:13:26.651Z,46.20
2023-05-14T00:15:53.650Z,46.17
2023-05-14T00:18:20.389Z,50.23
2023-05-14T00:20:47.148Z,46.63
2023-05-14T00:23:17.408Z,46.27
2023-05-14T00:25:44.418Z,46.80
2023-05-14T00:28:11.299Z,45.70
2023-05-14T00:30:38.120Z,48.93
2023-05-14T00:33:04.905Z,47.00
2023-05-14T00:35:31.817Z,56.37
2023-05-14T00:37:58.496Z,46.37
2023-05-14T00:40:27.073Z,46.67
2023-05-14T00:42:54.697Z,51.80
2023-05-14T00:45:22.640Z,51.13
2023-05-14T00:47:50.529Z,50.10
2023-05-14T00:50:18.194Z,51.57
2023-05-14T00:52:44.883Z,50.73
2023-05-14T00:55:16.380Z,48.97
2023-05-14T00:57:43.336Z,46.00
2023-05-14T01:00:10.741Z,51.13
2023-05-14T01:02:38.044Z,49.13
2023-05-14T01:05:05.268Z,55.20
2023-05-14T01:07:49.598Z,57.97
2023-05-14T01:10:42.796Z,52.67
2023-05-14T01:13:15.918Z,53.17
2023-05-14T01:15:44.849Z,57.27
2023-05-14T01:18:15.420Z,54.33
2023-05-14T01:20:42.371Z,57.97
2023-05-14T01:23:09.453Z,65.67
2023-05-14T01:25:37.020Z,56.23
2023-05-14T01:28:18.642Z,59.60
2023-05-14T01:31:02.982Z,61.17
2023-05-14T01:33:31.818Z,57.27
2023-05-14T01:35:58.821Z,63.37
2023-05-14T01:38:26.260Z,58.90
2023-05-14T01:40:53.717Z,62.93
2023-05-14T01:43:21.045Z,69.70
2023-05-14T01:45:48.205Z,63.60
2023-05-14T01:48:15.817Z,68.63
2023-05-14T01:50:42.552Z,73.47
2023-05-14T01:53:09.408Z,62.00
2023-05-14T01:55:36.372Z,66.30
2023-05-14T01:58:04.274Z,73.10
2023-05-14T02:00:31.981Z,66.70
2023-05-14T02:02:59.491Z,73.53
2023-05-14T02:05:26.546Z,69.37
2023-05-14T02:07:54.773Z,72.93
2023-05-14T02:10:21.611Z,70.33
2023-05-14T02:12:49.729Z,66.93
2023-05-14T02:15:16.789Z,65.83
2023-05-14T02:17:43.888Z,66.40
2023-05-14T02:20:11.469Z,70.77
2023-05-14T02:22:38.325Z,71.13
2023-05-14T02:25:05.571Z,72.50
2023-05-14T02:27:32.406Z,76.27
2023-05-14T02:30:00.908Z,71.77
2023-05-14T02:32:28.431Z,72.67
2023-05-14T02:34:55.394Z,77.00
2023-05-14T02:37:22.335Z,67.30
2023-05-14T02:39:49.707Z,65.60
2023-05-14T02:42:16.401Z,74.47
2023-05-14T02:44:43.209Z,75.97
2023-05-14T02:47:11.195Z,69.50
2023-05-14T02:49:37.993Z,72.47
2023-05-14T02:52:05.067Z,77.97
2023-05-14T02:54:32.334Z,76.50
2023-05-14T02:56:59.349Z,75.63
2023-05-14T02:59:27.282Z,72.47
2023-05-14T03:01:54.669Z,88.27
2023-05-14T03:04:21.797Z,79.60
2023-05-14T03:06:48.613Z,71.30
2023-05-14T03:09:15.387Z,70.20
2023-05-14T03:11:42.201Z,68.07
2023-05-14T03:14:08.970Z,72.43
2023-05-14T03:16:36.210Z,69.33
2023-05-14T03:19:03.112Z,70.83
2023-05-14T03:21:30.061Z,65.47
2023-05-14T03:23:56.854Z,70.73
2023-05-14T03:26:23.727Z,68.50
2023-05-14T03:28:52.893Z,77.33
2023-05-14T03:31:19.670Z,72.47
2023-05-14T03:33:46.814Z,72.43
2023-05-14T03:36:13.496Z,82.80
2023-05-14T03:38:40.176Z,68.37
2023-05-14T03:41:06.870Z,67.30
2023-05-14T03:43:33.628Z,70.67
2023-05-14T03:46:00.301Z,76.80
2023-05-14T03:48:27.693Z,75.27
2023-05-14T03:50:54.595Z,73.83
2023-05-14T03:53:21.811Z,69.27
2023-05-14T03:55:49.721Z,70.43
2023-05-14T03:58:17.468Z,75.73
2023-05-14T04:00:44.543Z,74.00
2023-05-14T04:03:15.877Z,76.50
2023-05-14T04:05:42.939Z,80.77
2023-05-14T04:08:09.867Z,72.50
2023-05-14T04:10:36.589Z,79.67
2023-05-14T04:13:03.430Z,72.23
2023-05-14T04:15:33.073Z,76.53
2023-05-14T04:18:00.097Z,76.43
2023-05-14T04:20:27.667Z,72.27
2023-05-14T04:22:54.392Z,67.90
2023-05-14T04:25:21.185Z,79.17
2023-05-14T04:27:48.077Z,76.50
2023-05-14T04:30:14.895Z,80.40
2023-05-14T04:32:41.759Z,71.63
2023-05-14T04:35:13.036Z,81.63
2023-05-14T04:37:40.950Z,75.40
2023-05-14T04:40:11.321Z,71.60
2023-05-14T04:42:38.950Z,68.90
2023-05-14T04:45:06.930Z,74.17
2023-05-14T04:47:34.169Z,70.67
2023-05-14T04:50:01.060Z,68.00
2023-05-14T04:52:27.998Z,65.90
2023-05-14T04:54:55.128Z,70.20
2023-05-14T04:57:21.869Z,66.93
2023-05-14T04:59:49.080Z,68.27
2023-05-14T05:02:16.199Z,69.33
2023-05-14T05:04:43.159Z,67.87
2023-05-14T05:07:10.271Z,64.43
2023-05-14T05:09:37.004Z,68.10
2023-05-14T05:12:03.882Z,64.90
2023-05-14T05:14:30.790Z,70.73
2023-05-14T05:16:57.821Z,69.10
2023-05-14T05:19:35.902Z,66.97
2023-05-14T05:22:09.605Z,70.20
2023-05-14T05:24:36.403Z,74.43
2023-05-14T05:27:03.799Z,69.77
2023-05-14T05:29:30.551Z,66.80
2023-05-14T05:31:57.661Z,66.70
2023-05-14T05:34:24.337Z,63.43
2023-05-14T05:36:51.679Z,68.97
2023-05-14T05:39:18.413Z,64.03
2023-05-14T05:41:45.290Z,61.40
2023-05-14T05:44:12.272Z,66.20
2023-05-14T05:46:39.573Z,64.57
2023-05-14T05:49:06.317Z,64.90
2023-05-14T05:51:33.625Z,62.27
2023-05-14T05:54:00.414Z,64.73
2023-05-14T05:56:27.236Z,61.23
2023-05-14T05:58:54.004Z,63.70
2023-05-14T06:01:21.168Z,60.63
2023-05-14T06:03:48.848Z,57.13
2023-05-14T06:06:15.783Z,58.73
2023-05-14T06:08:42.601Z,55.13
2023-05-14T06:11:10.175Z,74.10
2023-05-14T06:13:36.824Z,65.00
2023-05-14T06:16:04.437Z,62.37
2023-05-14T06:18:31.487Z,61.17
2023-05-14T06:21:00.121Z,53.97
2023-05-14T06:23:27.215Z,56.87
2023-05-14T06:25:54.103Z,57.93
2023-05-14T06:28:20.896Z,54.23
2023-05-14T06:30:50.287Z,61.63
2023-05-14T06:33:18.148Z,63.20
2023-05-14T06:35:46.085Z,56.60
2023-05-14T06:38:13.079Z,60.30
2023-05-14T06:40:39.820Z,53.27
2023-05-14T06:43:06.822Z,53.50
2023-05-14T06:45:34.075Z,53.63
2023-05-14T06:48:01.109Z,49.33
2023-05-14T06:50:28.359Z,54.30
2023-05-14T06:52:55.249Z,50.43
2023-05-14T06:55:22.201Z,58.20
2023-05-14T06:57:49.174Z,56.33
2023-05-14T07:00:16.590Z,51.40
2023-05-14T07:02:43.557Z,58.10
2023-05-14T07:05:11.025Z,55.07
2023-05-14T07:07:37.968Z,54.27
2023-05-14T07:10:05.394Z,59.00
2023-05-14T07:12:32.141Z,50.87
2023-05-14T07:14:59.125Z,54.03
2023-05-14T07:17:26.103Z,48.37
2023-05-14T07:19:52.880Z,55.03
2023-05-14T07:22:19.633Z,52.63
2023-05-14T07:24:46.446Z,53.60
2023-05-14T07:27:13.456Z,59.80
2023-05-14T07:29:40.326Z,54.80
2023-05-14T07:32:07.459Z,59.77
2023-05-14T07:34:34.617Z,57.23
2023-05-14T07:37:02.773Z,58.90
2023-05-14T07:39:29.446Z,54.17
2023-05-14T07:41:56.262Z,52.77
2023-05-14T07:44:31.608Z,54.90
2023-05-14T07:46:58.661Z,51.87
2023-05-14T07:49:25.429Z,63.40
2023-05-14T07:51:52.233Z,53.73
2023-05-14T07:54:18.964Z,55.93
2023-05-14T07:56:45.745Z,65.33
2023-05-14T07:59:12.705Z,58.23
2023-05-14T08:01:39.656Z,57.17
2023-05-14T08:04:06.724Z,60.13
2023-05-14T08:06:34.117Z,57.33
2023-05-14T08:09:00.840Z,59.27
2023-05-14T08:11:27.584Z,56.77
2023-05-14T08:13:54.323Z,55.77
2023-05-14T08:16:21.596Z,52.63
2023-05-14T08:18:48.344Z,54.33
2023-05-14T08:21:15.131Z,62.20
2023-05-14T08:23:41.967Z,54.97
2023-05-14T08:26:08.704Z,53.27
2023-05-14T08:28:35.526Z,60.50
2023-05-14T08:31:02.405Z,57.97
2023-05-14T08:33:29.164Z,56.00
2023-05-14T08:35:56.268Z,54.83
2023-05-14T08:38:22.933Z,59.07
2023-05-14T08:40:57.721Z,58.40
2023-05-14T08:43:31.474Z,57.87
2023-05-14T08:46:01.263Z,58.13
2023-05-14T08:48:32.428Z,55.70
2023-05-14T08:50:59.858Z,55.77
2023-05-14T08:53:26.676Z,56.87
2023-05-14T08:55:54.064Z,53.07
2023-05-14T08:58:21.310Z,53.97
2023-05-14T09:00:48.099Z,56.57
2023-05-14T09:03:15.117Z,53.17
2023-05-14T09:05:42.172Z,57.87
2023-05-14T09:08:08.877Z,52.17
2023-05-14T09:10:35.637Z,45.43
2023-05-14T09:13:02.669Z,52.20
2023-05-14T09:15:29.826Z,50.40
2023-05-14T09:17:56.942Z,46.13
2023-05-14T09:20:25.306Z,49.73
2023-05-14T09:22:55.564Z,51.27
2023-05-14T09:25:27.356Z,54.40
2023-05-14T09:27:58.617Z,54.53
2023-05-14T09:30:29.231Z,43.43
2023-05-14T09:32:56.109Z,45.60
2023-05-14T09:35:24.711Z,49.63
2023-05-14T09:37:53.565Z,49.63
2023-05-14T09:40:21.616Z,40.57
2023-05-14T09:42:49.320Z,47.33
2023-05-14T09:45:16.812Z,46.37
2023-05-14T09:47:45.003Z,42.50
2023-05-14T09:50:12.496Z,42.00
2023-05-14T09:52:39.733Z,42.80
2023-05-14T09:55:07.053Z,39.03
2023-05-14T09:57:34.629Z,39.73
2023-05-14T10:00:01.408Z,41.23
2023-05-14T10:02:37.856Z,40.03
2023-05-14T10:05:06.544Z,46.33
2023-05-14T10:07:43.018Z,45.23
2023-05-14T10:10:17.284Z,41.60
2023-05-14T10:12:47.702Z,37.53
2023-05-14T10:15:21.242Z,43.87
2023-05-14T10:17:55.749Z,38.47
2023-05-14T10:20:23.185Z,40.10
2023-05-14T10:22:50.958Z,43.67
2023-05-14T10:25:17.810Z,45.30
2023-05-14T10:27:44.870Z,38.40
2023-05-14T10:30:12.860Z,43.57
2023-05-14T10:32:41.908Z,40.57
2023-05-14T10:35:22.789Z,44.87
2023-05-14T10:37:51.495Z,42.30
2023-05-14T10:40:19.285Z,46.37
2023-05-14T10:42:46.953Z,50.47
2023-05-14T10:45:15.588Z,46.87
2023-05-14T10:47:43.789Z,44.43
2023-05-14T10:50:12.764Z,39.37
2023-05-14T10:52:42.850Z,42.27
2023-05-14T10:55:13.331Z,43.97
2023-05-14T10:57:42.084Z,37.17
2023-05-14T11:00:10.789Z,41.70
2023-05-14T11:02:39.449Z,41.70
2023-05-14T11:05:08.290Z,39.80
2023-05-14T11:07:43.243Z,41.57
2023-05-14T11:10:14.874Z,37.97
2023-05-14T11:12:43.468Z,34.67
2023-05-14T11:15:14.822Z,36.37
2023-05-14T11:17:42.923Z,34.27
2023-05-14T11:20:11.188Z,38.40
2023-05-14T11:22:39.358Z,36.33
2023-05-14T11:25:07.854Z,31.37
2023-05-14T11:27:39.085Z,34.87
2023-05-14T11:30:12.793Z,36.37
2023-05-14T11:32:40.027Z,34.80
2023-05-14T11:35:07.242Z,36.03
2023-05-14T11:37:35.753Z,40.10
2023-05-14T11:40:02.768Z,37.17
2023-05-14T11:42:30.777Z,37.77
2023-05-14T11:44:57.675Z,32.70
2023-05-14T11:47:24.508Z,38.17
2023-05-14T11:49:51.313Z,34.80
2023-05-14T11:52:19.645Z,32.77
2023-05-14T11:54:46.551Z,33.60
2023-05-14T11:57:21.072Z,41.77
2023-05-14T11:59:57.743Z,34.43
2023-05-14T12:02:27.358Z,33.00
2023-05-14T12:04:54.298Z,31.90
2023-05-14T12:07:21.098Z,31.27
2023-05-14T12:09:51.646Z,33.27
2023-05-14T12:12:21.280Z,31.73
2023-05-14T12:14:49.230Z,28.77
2023-05-14T12:17:23.348Z,37.03
2023-05-14T12:19:52.257Z,31.43
2023-05-14T12:22:21.687Z,32.70
2023-05-14T12:24:56.781Z,32.97
2023-05-14T12:27:26.861Z,36.47
2023-05-14T12:30:19.165Z,34.10
2023-05-14T12:32:51.463Z,32.50
2023-05-14T12:35:18.834Z,29.90
2023-05-14T12:37:45.576Z,34.70
2023-05-14T12:40:12.700Z,32.50
2023-05-14T12:42:39.447Z,32.53
2023-05-14T12:45:08.731Z,32.67
2023-05-14T12:47:36.438Z,29.07
2023-05-14T12:50:03.651Z,32.03
2023-05-14T12:55:00.115Z,29.87
2023-05-14T12:57:27.782Z,30.57
2023-05-14T12:59:55.627Z,28.17
2023-05-14T13:02:22.437Z,28.00
2023-05-14T13:04:49.197Z,28.67
2023-05-14T13:07:15.904Z,25.40
2023-05-14T13:09:42.645Z,34.60
2023-05-14T13:12:10.014Z,30.13
2023-05-14T13:14:37.118Z,28.43
2023-05-14T13:17:04.866Z,25.57
2023-05-14T13:19:31.790Z,27.43
2023-05-14T13:21:58.644Z,31.23
2023-05-14T13:24:25.641Z,27.17
2023-05-14T13:26:52.477Z,26.80
2023-05-14T13:29:19.165Z,23.60
2023-05-14T13:31:46.083Z,25.07
2023-05-14T13:34:13.234Z,20.23
2023-05-14T13:36:40.789Z,25.53
2023-05-14T13:39:07.567Z,25.40
2023-05-14T13:41:38.154Z,24.80
2023-05-14T13:44:05.018Z,27.17
2023-05-14T13:46:31.739Z,21.27
2023-05-14T13:48:59.019Z,20.97
2023-05-14T13:51:25.756Z,23.00
2023-05-14T13:56:19.418Z,23.63
2023-05-14T13:58:46.368Z,30.27
2023-05-14T14:01:15.405Z,24.97
2023-05-14T14:03:42.223Z,21.40
2023-05-14T14:06:08.953Z,23.93
2023-05-14T14:08:35.974Z,19.90
2023-05-14T14:11:03.437Z,23.60
2023-05-14T14:13:30.234Z,25.03
2023-05-14T14:15:57.359Z,23.93
2023-05-14T14:18:24.210Z,23.23
2023-05-14T14:20:51.106Z,21.47
2023-05-14T14:23:18.007Z,21.00
2023-05-14T14:25:44.752Z,20.50
2023-05-14T14:28:11.495Z,20.20
2023-05-14T14:30:38.198Z,20.20
2023-05-14T14:33:05.115Z,19.10
2023-05-14T14:35:33.425Z,20.10
2023-05-14T14:38:00.262Z,20.07
2023-05-14T14:40:27.426Z,17.30
2023-05-14T14:42:54.288Z,20.37
2023-05-14T14:45:21.451Z,18.43
2023-05-14T14:47:49.392Z,16.57
2023-05-14T14:50:16.172Z,16.37
2023-05-14T14:52:45.769Z,18.77
2023-05-14T14:55:12.841Z,15.20
2023-05-14T14:57:40.090Z,14.20
2023-05-14T15:00:07.308Z,17.77
2023-05-14T15:02:34.547Z,15.70
2023-05-14T15:05:01.625Z,16.70
2023-05-14T15:07:32.159Z,14.53
2023-05-14T15:09:59.353Z,21.80
2023-05-14T15:12:26.241Z,17.30
2023-05-14T15:14:53.002Z,12.63
2023-05-14T15:17:19.826Z,22.50
2023-05-14T15:19:46.685Z,19.37
2023-05-14T15:22:13.526Z,16.83
2023-05-14T15:24:41.092Z,18.50
2023-05-14T15:27:08.105Z,16.97
2023-05-14T15:29:35.005Z,15.13
2023-05-14T15:32:02.145Z,20.87
2023-05-14T15:34:28.969Z,13.50
2023-05-14T15:36:55.719Z,16.90
2023-05-14T15:39:22.520Z,19.20
2023-05-14T15:41:49.244Z,15.70
2023-05-14T15:44:16.031Z,17.93
2023-05-14T15:46:42.760Z,16.43
2023-05-14T15:49:09.616Z,17.77
2023-05-14T15:51:36.362Z,27.57
2023-05-14T15:54:03.360Z,14.97
2023-05-14T15:56:31.059Z,16.70
2023-05-14T15:58:57.848Z,17.07
2023-05-14T16:01:24.586Z,15.37
2023-05-14T16:03:52.744Z,12.37
2023-05-14T16:06:19.686Z,14.60
2023-05-14T16:08:48.571Z,16.10
2023-05-14T16:11:15.464Z,13.43
2023-05-14T16:13:42.286Z,12.43
2023-05-14T16:16:09.874Z,15.27
2023-05-14T16:18:36.816Z,15.60
2023-05-14T16:21:03.776Z,19.27
2023-05-14T16:23:30.629Z,13.30
2023-05-14T16:25:57.861Z,17.30
2023-05-14T16:28:24.894Z,12.73
2023-05-14T16:30:52.192Z,15.23
2023-05-14T16:33:23.246Z,12.10
2023-05-14T16:35:50.719Z,13.03
2023-05-14T16:38:19.551Z,13.93
2023-05-14T16:40:47.048Z,14.50
2023-05-14T16:43:14.111Z,14.57
2023-05-14T16:45:41.613Z,18.20
2023-05-14T16:48:08.841Z,15.87
2023-05-14T16:50:35.774Z,16.00
2023-05-14T16:53:02.505Z,15.33
2023-05-14T16:55:31.866Z,11.10
2023-05-14T16:57:58.938Z,17.60
2023-05-14T17:00:26.457Z,16.33
2023-05-14T17:02:54.360Z,14.73
2023-05-14T17:05:21.438Z,14.07
2023-05-14T17:07:48.762Z,15.23
2023-05-14T17:10:15.470Z,13.80
2023-05-14T17:12:42.267Z,12.13
2023-05-14T17:15:09.625Z,15.50
2023-05-14T17:17:36.917Z,17.17
2023-05-14T17:20:06.171Z,15.73
2023-05-14T17:22:32.989Z,14.87
2023-05-14T17:25:00.333Z,14.83
2023-05-14T17:27:31.654Z,15.80
2023-05-14T17:29:58.437Z,15.70
2023-05-14T17:32:25.271Z,15.90
2023-05-14T17:34:52.067Z,15.63
2023-05-14T17:37:19.614Z,12.13
2023-05-14T17:39:46.339Z,14.10
2023-05-14T17:42:13.345Z,16.30
2023-05-14T17:44:40.105Z,9.50
2023-05-14T17:47:08.309Z,13.67
2023-05-14T17:49:36.511Z,14.27
2023-05-14T17:52:03.565Z,10.27
2023-05-14T17:54:31.008Z,15.17
2023-05-14T17:56:57.725Z,9.97
2023-05-14T17:59:24.709Z,9.80
2023-05-14T18:01:51.448Z,12.00
2023-05-14T18:04:18.389Z,9.00
2023-05-14T18:06:45.826Z,11.70
2023-05-14T18:09:12.888Z,13.07
2023-05-14T18:11:39.533Z,13.93
2023-05-14T18:14:06.393Z,13.20
2023-05-14T18:16:33.438Z,10.70
2023-05-14T18:19:02.816Z,13.80
2023-05-14T18:21:29.540Z,9.90
2023-05-14T18:23:56.419Z,10.23
2023-05-14T18:26:23.358Z,10.67
2023-05-14T18:28:50.150Z,13.73
2023-05-14T18:31:17.062Z,9.80
2023-05-14T18:33:45.924Z,8.63
2023-05-14T18:36:12.899Z,8.80
2023-05-14T18:38:40.906Z,13.60
2023-05-14T18:41:07.751Z,9.70
2023-05-14T18:43:34.512Z,10.07
2023-05-14T18:46:01.719Z,12.57
2023-05-14T18:48:28.900Z,7.47
2023-05-14T18:50:55.707Z,19.30
2023-05-14T18:53:22.528Z,8.83
2023-05-14T18:55:56.348Z,8.37
2023-05-14T18:58:23.440Z,11.77
2023-05-14T19:00:50.561Z,11.37
2023-05-14T19:03:17.588Z,9.30
2023-05-14T19:05:44.654Z,12.20
2023-05-14T19:08:11.729Z,9.07
2023-05-14T19:10:39.265Z,12.27
2023-05-14T19:13:06.043Z,10.17
2023-05-14T19:15:33.103Z,7.53
2023-05-14T19:18:00.636Z,8.53
2023-05-14T19:20:27.850Z,9.67
2023-05-14T19:22:54.539Z,12.77
2023-05-14T19:25:21.330Z,7.67
2023-05-14T19:27:51.157Z,12.33
2023-05-14T19:30:20.098Z,10.17
2023-05-14T19:32:47.001Z,10.83
2023-05-14T19:35:13.756Z,14.23
2023-05-14T19:37:40.675Z,9.53
2023-05-14T19:40:07.955Z,15.60
2023-05-14T19:42:35.150Z,12.07
2023-05-14T19:45:01.968Z,10.57
2023-05-14T19:47:30.566Z,14.30
2023-05-14T19:49:57.372Z,14.20
2023-05-14T19:52:24.259Z,16.23
2023-05-14T19:54:51.613Z,11.33
2023-05-14T19:57:18.547Z,14.27
2023-05-14T19:59:45.792Z,17.23
2023-05-14T20:02:18.476Z,15.50
2023-05-14T20:04:46.245Z,12.33
2023-05-14T20:07:15.835Z,11.70
2023-05-14T20:09:42.915Z,16.73
2023-05-14T20:15:05.523Z,13.17
2023-05-14T20:17:32.461Z,16.57
2023-05-14T20:20:01.660Z,14.93
2023-05-14T20:22:28.721Z,17.33
2023-05-14T20:24:55.817Z,12.27
2023-05-14T20:27:25.224Z,12.47
2023-05-14T20:29:54.020Z,11.87
2023-05-14T20:32:24.922Z,14.30
2023-05-14T20:34:55.956Z,14.07
2023-05-14T20:37:23.985Z,14.70
2023-05-14T20:39:50.960Z,17.60
2023-05-14T20:42:20.416Z,17.93
2023-05-14T20:44:48.758Z,14.83
2023-05-14T20:47:26.614Z,19.03
2023-05-14T20:49:57.919Z,18.63
2023-05-14T20:52:24.989Z,19.37
2023-05-14T20:54:55.511Z,23.90
2023-05-14T20:57:24.216Z,16.97
2023-05-14T20:59:50.992Z,17.50
2023-05-14T21:02:18.336Z,14.07
2023-05-14T21:04:50.257Z,16.90
2023-05-14T21:07:17.871Z,13.87
2023-05-14T21:09:50.841Z,19.90
2023-05-14T21:12:23.311Z,19.93
2023-05-14T21:14:50.137Z,17.70
2023-05-14T21:17:17.160Z,21.10
2023-05-14T21:19:43.933Z,18.67
2023-05-14T21:22:10.588Z,17.13
2023-05-14T21:24:37.458Z,20.83
2023-05-14T21:27:05.493Z,16.93
2023-05-14T21:29:32.457Z,24.20
2023-05-14T21:31:59.289Z,19.63
2023-05-14T21:34:26.382Z,21.23
2023-05-14T21:36:55.718Z,20.03
2023-05-14T21:39:22.972Z,15.23
2023-05-14T21:41:49.788Z,22.00
2023-05-14T21:44:16.492Z,21.90
2023-05-14T21:46:43.263Z,18.33
2023-05-14T21:49:09.925Z,17.20
2023-05-14T21:51:36.684Z,20.87
2023-05-14T21:54:03.457Z,17.60
2023-05-14T21:56:30.267Z,20.03
2023-05-14T21:58:57.141Z,21.00
2023-05-14T22:01:24.060Z,18.03
2023-05-14T22:03:50.825Z,33.03
2023-05-14T22:06:17.597Z,21.13
2023-05-14T22:08:44.241Z,23.47
2023-05-14T22:11:11.087Z,16.97
2023-05-14T22:13:40.947Z,25.37
2023-05-14T22:16:13.304Z,20.53
2023-05-14T22:18:41.670Z,21.53
2023-05-14T22:21:08.549Z,24.80
2023-05-14T22:23:35.427Z,25.00
2023-05-14T22:26:02.215Z,23.37
2023-05-14T22:28:28.954Z,24.80
2023-05-14T22:30:56.647Z,23.70
2023-05-14T22:33:23.513Z,26.10
2023-05-14T22:35:50.580Z,27.10
2023-05-14T22:38:17.452Z,28.80
2023-05-14T22:40:44.092Z,31.70
2023-05-14T22:43:10.922Z,24.07
2023-05-14T22:45:37.624Z,25.93
2023-05-14T22:48:04.572Z,24.50
2023-05-14T22:50:31.373Z,31.77
2023-05-14T22:52:58.122Z,34.20
2023-05-14T22:55:25.124Z,30.97
2023-05-14T22:57:52.209Z,26.30
2023-05-14T23:00:19.452Z,33.50
2023-05-14T23:02:46.351Z,27.07
2023-05-14T23:05:13.409Z,28.70
2023-05-14T23:07:40.255Z,27.00
2023-05-14T23:10:07.652Z,29.47
2023-05-14T23:12:34.510Z,30.00
2023-05-14T23:15:01.258Z,28.17
2023-05-14T23:17:28.122Z,29.63
2023-05-14T23:19:54.938Z,29.77
2023-05-14T23:22:22.102Z,28.67
2023-05-14T23:24:48.813Z,26.33
2023-05-14T23:27:15.757Z,27.73
2023-05-14T23:29:42.536Z,25.60
2023-05-14T23:32:09.474Z,24.83
2023-05-14T23:34:36.526Z,25.07
2023-05-14T23:37:03.287Z,25.33
2023-05-14T23:39:30.652Z,24.43
2023-05-14T23:41:57.431Z,23.33
2023-05-14T23:44:24.966Z,28.53
2023-05-14T23:46:51.907Z,25.90
2023-05-14T23:49:18.885Z,26.00
2023-05-14T23:51:45.627Z,25.77
2023-05-14T23:54:12.446Z,31.77
2023-05-14T23:56:39.099Z,31.63
2023-05-14T23:59:05.862Z,28.73
